Tiempo atmosférico en la estación meteorológica de Logroño Aeropuerto, La Rioja (353 m.)



Fecha
DESCASC
Temp. máxima en grados centígrados (hora)
DESCASC
Temp. mínima en grados centígrados (hora)
DESCASC
Temp. media en grados centígrados
DESCASC
Racha de viento máxima en m/sg (hora)
DESCASC
Velocidad máxima media en intervalos de 10 minutos(hora)
DESCASC
Precipitaciones diarias en mm
DESCASC
Precipitaciones de 00:00 a 06:00 en mm
DESCASC
Precipitaciones de 06:00 a 12:00 en mm
DESCASC
Precipitaciones de 12:00 a 18:00 en mm
DESCASC
Precipitaciones de 18:00 a 24:00 en mm
DESCASC
10-11-2019 7.6 (00:00) 4.5 (00:00) 6 12.5 (09:20) 7.5 (09:20) 10.2 1 3.7 5.3 0.2
09-11-2019 13.2 (16:20) 7.2 (00:00) 10.2 10.83 (17:10) 6.39 (16:30) 5.8 0 0 0.7 5.1
08-11-2019 10.5 (11:50) 5.5 (00:00) 8 17.5 (13:20) 10.28 (15:10) 7.1 0 0 6.8 0.3
07-11-2019 13.1 (14:00) 5.9 (00:00) 9.5 8.33 (11:10) 4.72 (11:10) 9.4 4.2 5 0 0.2
06-11-2019 16.1 (16:10) 9.3 (00:00) 12.7 10.28 (04:00) 6.39 (04:10) 1.1 1.1 0 0 0
05-11-2019 13.1 (15:30) 8.8 (00:00) 11 14.44 (11:40) 7.5 (13:00) 2.1 0 0.1 0.7 1.3
04-11-2019 20.9 (13:10) 9.4 (00:00) 15.1 11.67 (20:00) 6.11 (20:00) 0.8 0 0 0.2 0.6
03-11-2019 18.1 (05:40) 10.3 (00:00) 14.2 19.72 (06:10) 12.22 (06:10) 1.9 0 1.9 0 0
02-11-2019 19.8 (15:00) 12.5 (00:00) 16.1 8.33 (17:10) 5 (17:20) 2.8 0 2.1 0.7 0
01-11-2019 21.9 (13:20) 12.2 (00:00) 17 5 (13:20) 3.61 (13:20) 1.3 0 0 0.9 0.4
31-10-2019 21 (15:10) 13 (23:59) 17 5.83 (04:40) 3.61 (01:30) 1.8 1.8 0 0 0
30-10-2019 20.1 (13:10) 9.6 (00:00) 14.9 5 (11:50) 3.06 (12:00) 0 0 0 0 0
29-10-2019 22.1 (16:40) 8.8 (00:00) 15.5 7.78 (13:00) 5.28 (15:10) 0 0 0 0 0
28-10-2019 20.7 (15:20) 11.3 (00:00) 16 5 (14:30) 3.61 (16:40) 0 0 0 0 0
27-10-2019 18.5 (16:10) 6.3 (00:00) 12.4 6.11 (12:00) 4.72 (15:10) 0 0 0 0 0
26-10-2019 19.6 (17:00) 5.7 (00:00) 12.7 6.67 (15:10) 4.72 (15:10) 0 0 0 0 0
25-10-2019 22.3 (17:40) 6.4 (00:00) 14.3 6.11 (12:10) 3.33 (12:10) 0 0 0 0 0
24-10-2019 16.7 (18:10) 9.3 (00:00) 13 8.89 (17:40) 5.28 (18:00) 1.7 1.7 0 0 0
23-10-2019 14.8 (16:10) 9.6 (00:00) 12.2 7.78 (22:40) 4.72 (16:00) 5 0.8 1.7 0 2.5
22-10-2019 11.3 (14:10) 5.6 (00:00) 8.5 7.22 (11:50) 4.72 (22:00) 6.6 0 0 3.8 2.8
21-10-2019 17.4 (17:10) 5.7 (00:00) 11.5 5.83 (12:40) 3.33 (13:20) 0 0 0 0 0
20-10-2019 18 (00:10) 8.9 (00:00) 13.4 7.78 (21:20) 5.28 (02:00) 8 3.4 0.2 3.7 0.7
19-10-2019 23.2 (16:50) 12.2 (00:00) 17.7 9.72 (18:00) 6.39 (18:20) 0 0 0 0 0
18-10-2019 21 (16:50) 13.1 (00:00) 17.1 6.11 (18:00) 4.72 (18:20) 0 0 0 0 0
17-10-2019 22.9 (17:40) 11.2 (00:00) 17 5 (14:40) 3.33 (18:10) 0 0 0 0 0
16-10-2019 22.1 (17:20) 6.3 (00:00) 14.2 5.83 (15:10) 3.89 (20:20) 0 0 0 0 0
15-10-2019 18.6 (15:50) 8.5 (00:00) 13.6 10.28 (14:40) 5.83 (14:30) 0 0 0 0 0
14-10-2019 25 (13:20) 12.5 (00:00) 18.8 14.44 (10:30) 11.11 (11:00) 0.4 0 0 0 0.4

Gráficas

Temp. máximas Temp. mínimas Temp. medias Precipitaciones Rachas de viento máximas Velocidades máximas media en intervalos de 10 minutos

Datos horarios

Fecha y hora oficial Temperatura (ºC) Velocidad del viento (km/h) Dirección del viento Racha (km/h) Dirección de racha Precipitación (mm) Presión (hPa) Tendencia (hPa) Humedad (%)
2019-11-12 23:00:00 8.4 3 Sudoeste 8 Oeste 0.1 965.5 -1.6 94
2019-11-12 22:00:00 8.6 5 Oeste 11 Oeste 0.3 966.1 -1.4 93
2019-11-12 21:00:00 9.1 9 Oeste 17 Oeste 0.9 966.7 -1.1 89
2019-11-12 20:00:00 9.9 9 Oeste 22 Oeste 0 967.1 -1.2 82
2019-11-12 19:00:00 10.7 8 Oeste 13 Oeste 0 967.5 -1.3 77
2019-11-12 18:00:00 11.5 6 Sudoeste 11 Sudoeste 0 967.8 -1.6 67
2019-11-12 17:00:00 12.6 6 Oeste 22 Oeste 0 968.3 -1.8 62
2019-11-12 16:00:00 13.2 14 Oeste 32 Oeste 0 968.8 -2.3 57
2019-11-12 15:00:00 14.1 15 Oeste 35 Oeste 0 969.4 -2.6 52
2019-11-12 14:00:00 13 22 Oeste 35 Oeste 0 970.1 -2.5 59
2019-11-12 13:00:00 11.5 19 Oeste 33 Oeste 0 971.1 -1.9 62
2019-11-12 12:00:00 12 20 Oeste 39 Oeste 0 972 -1.2 61
2019-11-12 11:00:00 9.9 15 Oeste 28 Oeste 0 972.6 -0.4 68
2019-11-12 10:00:00 8.7 11 Oeste 22 Oeste 0 973 0.1 73
2019-11-12 09:00:00 8 7 Oeste 22 Oeste 0 973.2 -0.3 76
2019-11-12 08:00:00 7.8 14 Oeste 24 Oeste 0 973 -0.8 77
2019-11-12 07:00:00 7.9 11 Oeste 18 Oeste 0 972.9 -0.9 77
2019-11-12 06:00:00 8 10 Oeste 21 Oeste 0 973.5 -0.8 77
2019-11-12 05:00:00 7.6 8 Oeste 18 Oeste 0 973.8 -0.8 82
2019-11-12 04:00:00 7.6 10 Oeste 21 Oeste 0 973.8 -1.6 80
2019-11-12 03:00:00 7.5 12 Oeste 21 Oeste 0 974.3 -1.7 80
2019-11-12 02:00:00 7.5 11 Oeste 21 Oeste 0 974.6 -1.5 80
2019-11-12 01:00:00 7 12 Oeste 17 Oeste 0 975.4 -0.7 86
2019-11-12 00:00:00 7 10 Oeste 18 Oeste 0 976 -0.1 84
2019-11-11 23:00:00 7.2 12 Oeste 18 Oeste 0 976.1 0 86
2019-11-11 22:00:00 7.8 15 Oeste 22 Oeste 0.2 976.1 0.3 84
2019-11-11 21:00:00 8.5 11 Oeste 30 Oeste 0 976.1 1.2 78
2019-11-11 20:00:00 8.5 14 Oeste 21 Oeste 0.1 976.1 1.7 80
2019-11-11 19:00:00 8.9 11 Oeste 17 Noroeste 0.2 975.8 1.5 80
2019-11-11 18:00:00 9.6 9 Oeste 24 Noroeste 0 974.9 1.8 73
2019-11-11 17:00:00 10.4 13 Oeste 30 Noroeste 0 974.4 2.3 64
2019-11-11 16:00:00 10.7 13 Oeste 37 Oeste 0 974.3 2.4 71
2019-11-11 15:00:00 11.6 21 Oeste 46 Noroeste 0.3 973.1 0.3 67
2019-11-11 14:00:00 10 17 Oeste 26 Oeste 0 972.1 -0.6 88
2019-11-11 13:00:00 9.7 14 Oeste 30 Oeste 0 971.9 -1.1 85
2019-11-11 12:00:00 7.4 14 Oeste 24 Oeste 0.6 972.8 -0.1 92
2019-11-11 11:00:00 7.6 16 Oeste 28 Oeste 0.1 972.7 0 86
2019-11-11 10:00:00 7.9 14 Oeste 22 Oeste 0 973 0.1 83
2019-11-11 09:00:00 7.3 12 Oeste 26 Oeste 0 972.9 -0.4 82
2019-11-11 08:00:00 6.9 12 Oeste 24 Oeste 0 972.7 -1.1 83
2019-11-11 07:00:00 6.9 14 Oeste 24 Oeste 0 972.9 -1.5 83
2019-11-11 06:00:00 6.6 12 Oeste 26 Oeste 0 973.3 -1.3 86
2019-11-11 05:00:00 6.3 12 Oeste 21 Oeste 0 973.8 -1.2 87
2019-11-11 04:00:00 5.7 9 Oeste 17 Sudoeste 0 974.4 -1 90
2019-11-11 03:00:00 5.7 11 Sudoeste 26 Oeste 0 974.6 -1.2 89
2019-11-11 02:00:00 5.7 13 Oeste 26 Sudoeste 0 975 -0.6 88
2019-11-11 01:00:00 5.4 11 Oeste 22 Oeste 0 975.4 0.2 89
2019-11-11 00:00:00 5.5 13 Oeste 21 Oeste 0 975.8 0.3 90
2019-11-10 23:00:00 5 10 Oeste 18 Oeste 0 975.6 -0.1 92
2019-11-10 22:00:00 4.5 9 Oeste 17 Oeste 0 975.2 -0.2 94
2019-11-10 21:00:00 5 7 Oeste 22 Oeste 0 975.5 1.3 92
2019-11-10 20:00:00 5.4 15 Oeste 24 Oeste 0.2 975.7 1.6 89
2019-11-10 19:00:00 5.6 10 Oeste 17 Oeste 0 975.4 1.6 87
2019-11-10 18:00:00 6 12 Sudoeste 28 Oeste 0 974.2 1.1 87
2019-11-10 17:00:00 5.3 14 Oeste 18 Oeste 1.1 974.1 1.3 92
2019-11-10 16:00:00 5.8 7 Oeste 22 Oeste 2.8 973.8 1 89
2019-11-10 15:00:00 6.6 16 Oeste 32 Sudoeste 0.5 973.1 -1.1 83
2019-11-10 14:00:00 6.7 21 Oeste 41 Oeste 0 972.8 -1 83
2019-11-10 13:00:00 5.5 24 Oeste 39 Oeste 0.9 972.8 -0.9 89
2019-11-10 12:00:00 4.9 15 Oeste 28 Oeste 1.5 974.2 1.3 92
2019-11-10 11:00:00 4.9 17 Oeste 30 Oeste 0.7 973.8 0.8 89
2019-11-10 10:00:00 4.6 15 Oeste 45 Oeste 0.7 973.7 0.8 90
2019-11-10 09:00:00 6.3 21 Oeste 35 Sudoeste 0.1 972.9 -0.2 84
2019-11-10 08:00:00 6.1 12 Oeste 28 Oeste 0.5 973 -0.4 87
2019-11-10 07:00:00 6.3 12 Oeste 26 Oeste 0.2 972.9 -0.1 82
2019-11-10 06:00:00 6.1 15 Oeste 28 Oeste 0.3 973.1 -0.4 84
2019-11-10 05:00:00 5.7 5 Oeste 33 Oeste 0.5 973.4 0.2 87
2019-11-10 04:00:00 5.9 18 Oeste 30 Oeste 0 973 0 82
2019-11-10 03:00:00 6.2 19 Oeste 35 Oeste 0.1 973.5 0.5 82
2019-11-10 02:00:00 6.6 23 Oeste 35 Sudoeste 0 973.2 0.3 78
2019-11-10 01:00:00 7.4 17 Oeste 33 Oeste 0.1 973 0.5 82
2019-11-10 00:00:00 7.6 14 Oeste 22 Oeste 0.3 973 1.9 83
2019-11-09 23:00:00 8.2 13 Sudoeste 26 Oeste 0 972.9 2.1 78
2019-11-09 22:00:00 8.1 10 Oeste 30 Oeste 0.7 972.5 1.2 81
2019-11-09 21:00:00 9 10 Oeste 22 Oeste 3.7 971.1 -0.2 88
2019-11-09 20:00:00 10.6 9 Oeste 18 Oeste 0.4 970.8 -0.6 82
2019-11-09 19:00:00 11.1 7 Oeste 26 Oeste 0 971.3 0 74
2019-11-09 18:00:00 11.5 15 Oeste 39 Oeste 0 971.3 -0.7 71
2019-11-09 17:00:00 12.1 19 Oeste 37 Oeste 0 971.4 -1.5 65
2019-11-09 16:00:00 12.7 18 Oeste 35 Sudoeste 0 971.3 -2.5 63
2019-11-09 15:00:00 11.3 14 Oeste 35 Oeste 0.2 972 -2.7 73
2019-11-09 14:00:00 11.3 19 Oeste 33 Oeste 0 972.9 -2.2 66
2019-11-09 13:00:00 9 16 Oeste 32 Oeste 0.5 973.8 -1.7 81
2019-11-09 12:00:00 10.9 20 Oeste 37 Oeste 0 974.7 -1.1 63
2019-11-09 11:00:00 10.9 18 Oeste 33 Oeste 0 975.1 -0.7 64
2019-11-09 10:00:00 9.5 12 Oeste 30 Oeste 0 975.5 -0.4 68
2019-11-09 09:00:00 8.3 17 Oeste 28 Sudoeste 0 975.8 -0.2 72
2019-11-09 08:00:00 7.2 11 Oeste 22 Oeste 0 975.8 0.2 77
2019-11-09 07:00:00 7.3 15 Oeste 30 Oeste 0 975.9 0.2 76
2019-11-09 06:00:00 7.4 14 Oeste 26 Oeste 0 976 0.6 77
2019-11-09 05:00:00 7.6 15 Oeste 24 Oeste 0 975.6 0.2 77
2019-11-09 04:00:00 7.5 10 Oeste 26 Oeste 0 975.7 -0.2 80
2019-11-09 03:00:00 8.1 15 Oeste 28 Oeste 0 975.4 -0.1 76
2019-11-09 02:00:00 8 16 Oeste 33 Oeste 0 975.4 0.2 77
2019-11-09 01:00:00 8.5 13 Oeste 26 Oeste 0 975.9 1.2 74
2019-11-09 00:00:00 8.4 14 Oeste 30 Oeste 0 975.5 1.4 72
2019-11-08 23:00:00 8.4 13 Oeste 30 Sudoeste 0 975.2 1.6 75
2019-11-08 22:00:00 8.4 19 Oeste 37 Sudoeste 0 974.7 1.8 76
2019-11-08 21:00:00 8.3 18 Oeste 39 Oeste 0 974.1 2.3 78
2019-11-08 20:00:00 8.5 22 Oeste 45 Oeste 0.1 973.6 2.1 77
2019-11-08 19:00:00 8 18 Oeste 45 Oeste 0.2 972.9 2.3 83
2019-11-08 18:00:00 7.6 21 Oeste 48 Oeste 1.6 971.8 2.1 84
2019-11-08 17:00:00 7 16 Oeste 39 Oeste 1.2 971.5 2 88
2019-11-08 16:00:00 6.8 22 Oeste 59 Oeste 1.3 970.6 2.1 86
2019-11-08 15:00:00 7.3 36 Oeste 61 Oeste 0.9 969.7 1.3 83
2019-11-08 14:00:00 7.1 26 Oeste 63 Oeste 0.6 969.5 0.8 85
2019-11-08 13:00:00 7.8 28 Oeste 54 Oeste 1.2 968.5 -0.2 81
2019-11-08 12:00:00 10.1 24 Oeste 54 Oeste 0 968.4 0.1 62
2019-11-08 11:00:00 8.3 16 Oeste 45 Oeste 0 968.7 1.3 72
2019-11-08 10:00:00 8.7 19 Oeste 42 Oeste 0 968.7 1.6 65
2019-11-08 09:00:00 6.8 13 Oeste 30 Oeste 0 968.3 1.3 72
2019-11-08 08:00:00 6.1 13 Oeste 30 Oeste 0 967.4 0.8 74
2019-11-08 07:00:00 6.1 18 Oeste 33 Oeste 0 967.1 0.9 74
2019-11-08 06:00:00 6.3 15 Oeste 33 Oeste 0 967 1 73
2019-11-08 05:00:00 6.6 19 Oeste 30 Oeste 0 966.6 0.6 68
2019-11-08 04:00:00 6.4 18 Oeste 28 Oeste 0 966.2 -0.3 70
2019-11-08 03:00:00 5.9 12 Oeste 22 Oeste 0 966 -0.4 73
2019-11-08 02:00:00 5.8 13 Oeste 24 Oeste 0 966 -0.7 73
2019-11-08 01:00:00 5.9 10 Oeste 22 Oeste 0 966.5 0 73
2019-11-08 00:00:00 6.3 11 Oeste 22 Oeste 0 966.4 0.3 72
2019-11-07 23:00:00 6.2 6 Oeste 15 Oeste 0 966.7 0.5 77
2019-11-07 22:00:00 5.9 0 Calma 8 Sudeste 0 966.5 0.1 88
2019-11-07 21:00:00 6.8 2 Este 9 Este 0.2 966.1 0.8 85
2019-11-07 20:00:00 8.2 5 Oeste 13 Norte 0 966.2 0.6 75
2019-11-07 19:00:00 8.5 4 Noroeste 17 Sudoeste 0 966.4 1 76
2019-11-07 18:00:00 9.4 10 Sudoeste 18 Sudoeste 0 965.3 -0.9 70
2019-11-07 17:00:00 10.7 12 Oeste 26 Noroeste 0 965.6 -1 60
2019-11-07 16:00:00 12.3 8 Sudoeste 15 Oeste 0 965.4 -2.1 56
2019-11-07 15:00:00 11.8 8 Oeste 28 Sudoeste 0 966.2 -2.1 58
2019-11-07 14:00:00 12.9 13 Sudoeste 22 Sur 0 966.6 -1.8 57
2019-11-07 13:00:00 12.3 10 Oeste 21 Sudoeste 0 967.5 -0.4 65
2019-11-07 12:00:00 10.4 6 Noroeste 30 Oeste 1 968.3 1 83
2019-11-07 11:00:00 9.5 5 Sudoeste 13 Norte 0.4 968.4 1.8 90
2019-11-07 10:00:00 9.5 3 Oeste 11 Oeste 0.3 967.9 1.6 90
2019-11-07 09:00:00 9.3 6 Oeste 11 Sudoeste 2.4 967.3 0.8 95
2019-11-07 08:00:00 9 4 Norte 8 Norte 0.4 966.6 0.2 98
2019-11-07 07:00:00 8.8 0 Calma 4 Nordeste 0.5 966.3 0.3 97
2019-11-07 06:00:00 8.7 0 Calma 8 Nordeste 1.9 966.5 0.2 96
2019-11-07 05:00:00 8.7 7 Nordeste 9 Nordeste 1.9 966.4 0 96
2019-11-07 04:00:00 9 8 Este 13 Sudeste 0.4 966 -0.9 91
2019-11-07 03:00:00 9.1 6 Este 11 Este 0 966.3 -0.7 89
2019-11-07 02:00:00 9.3 2 Norte 17 Este 0 966.4 -1.3 89
2019-11-07 01:00:00 9.5 0 Calma 9 Norte 0 966.9 -1.2 89
2019-11-07 00:00:00 9.7 3 Este 11 Este 0 967 -1.2 83
2019-11-06 23:00:00 9.5 0 Calma 9 Este 0 967.7 -1.2 86
2019-11-06 22:00:00 9.7 7 Nordeste 9 Nordeste 0 968.1 -1.2 85
2019-11-06 21:00:00 10 0 Calma 4 Sudoeste 0 968.2 -1 79
2019-11-06 20:00:00 11 0 Calma 11 Sudoeste 0 968.9 -0.4 75
2019-11-06 19:00:00 12 7 Oeste 17 Oeste 0 969.3 -0.6 64
2019-11-06 18:00:00 13.5 9 Oeste 22 Oeste 0 969.2 -1.1 56
2019-11-06 17:00:00 15.5 14 Oeste 24 Oeste 0 969.3 -1.9 49
2019-11-06 16:00:00 15.5 11 Oeste 24 Oeste 0 969.9 -2 52
2019-11-06 15:00:00 14.6 16 Oeste 33 Oeste 0 970.3 -2.4 55
2019-11-06 14:00:00 14.5 14 Oeste 33 Oeste 0 971.2 -1.6 57
2019-11-06 13:00:00 13.4 15 Oeste 30 Oeste 0 971.9 -0.8 60
2019-11-06 12:00:00 12.7 12 Oeste 24 Oeste 0 972.7 0 62
2019-11-06 11:00:00 12.1 14 Oeste 28 Oeste 0 972.8 0.8 64
2019-11-06 10:00:00 11 15 Oeste 28 Oeste 0 972.7 1.2 67
2019-11-06 09:00:00 10.4 17 Oeste 32 Oeste 0 972.7 1.4 72
2019-11-06 08:00:00 9.4 11 Oeste 26 Oeste 0 972 0.6 78
2019-11-06 07:00:00 9.8 18 Oeste 35 Oeste 0 971.5 0.3 77
2019-11-06 06:00:00 9.9 20 Oeste 35 Oeste 0 971.3 0.3 81
2019-11-06 05:00:00 9.9 12 Oeste 37 Oeste 0 971.4 0.5 81
2019-11-06 04:00:00 10.3 22 Oeste 37 Sudoeste 0 971.2 0.4 77
2019-11-06 03:00:00 10.2 18 Oeste 28 Oeste 0.2 971 0.6 78
2019-11-06 02:00:00 10.1 15 Oeste 30 Oeste 0.1 970.9 0.8 82
2019-11-06 01:00:00 9.6 11 Oeste 30 Sudoeste 0.8 970.8 1.2 87
2019-11-06 00:00:00 10 16 Oeste 33 Oeste 0.2 970.4 1.3 81
2019-11-05 23:00:00 9.7 14 Oeste 39 Oeste 0.2 970.1 1.6 82
2019-11-05 22:00:00 9.7 17 Oeste 33 Oeste 0.3 969.6 1.5 82
2019-11-05 21:00:00 9.3 23 Oeste 39 Oeste 0.6 969.1 2.4 81
2019-11-05 20:00:00 9.7 17 Oeste 35 Oeste 0 968.5 2.6 78
2019-11-05 19:00:00 10.2 19 Oeste 35 Oeste 0 968.1 3 77
2019-11-05 18:00:00 10.6 22 Oeste 35 Oeste 0.4 966.7 1.7 77
2019-11-05 17:00:00 12.5 18 Oeste 32 Oeste 0 965.9 1.2 66
2019-11-05 16:00:00 12.2 17 Oeste 50 Oeste 0 965.1 0.4 65
2019-11-05 15:00:00 12.6 23 Oeste 45 Sudoeste 0.1 965 0.4 65
2019-11-05 14:00:00 11.8 23 Oeste 42 Oeste 0 964.7 0.6 77
2019-11-05 13:00:00 11.5 27 Oeste 45 Oeste 0.2 964.7 0.9 75
2019-11-05 12:00:00 11 17 Oeste 52 Oeste 0.1 964.6 0.8 76
2019-11-05 11:00:00 12.2 22 Oeste 42 Oeste 0 964.1 1.2 61
2019-11-05 10:00:00 11.2 17 Oeste 30 Oeste 0 963.8 1.4 63
2019-11-05 09:00:00 10.2 13 Oeste 24 Oeste 0 963.8 1.8 67
2019-11-05 08:00:00 9 10 Oeste 21 Oeste 0 962.9 1.1 72
2019-11-05 07:00:00 9.1 14 Oeste 28 Oeste 0 962.4 0.6 72
2019-11-05 06:00:00 8.9 12 Oeste 22 Oeste 0 962 0.4 74
2019-11-05 05:00:00 9 12 Oeste 24 Oeste 0 961.8 -0.1 72
2019-11-05 04:00:00 10 14 Oeste 26 Oeste 0 961.8 -0.1 66
2019-11-05 03:00:00 9.8 15 Oeste 28 Oeste 0 961.6 -0.5 70
2019-11-05 02:00:00 9.7 17 Sudoeste 28 Oeste 0 961.9 -0.3 75
2019-11-05 01:00:00 10.4 13 Oeste 24 Oeste 0 961.9 -0.3 71
2019-11-05 00:00:00 10.1 13 Sudoeste 22 Oeste 0 962.1 0.2 80
2019-11-04 23:00:00 9.6 0 Calma 9 Oeste 0 962.2 0.7 89
2019-11-04 22:00:00 11.1 10 Oeste 24 Oeste 0.4 962.2 1.5 81
2019-11-04 21:00:00 12.3 10 Oeste 32 Oeste 0 961.9 1.4 80
2019-11-04 20:00:00 12.9 22 Oeste 42 Oeste 0.2 961.5 0.8 78
2019-11-04 19:00:00 15.3 10 Oeste 17 Oeste 0 960.7 -0.1 69
2019-11-04 18:00:00 15.4 7 Oeste 18 Oeste 0 960.5 0.5 74
2019-11-04 17:00:00 15.6 10 Oeste 30 Oeste 0 960.7 0.9 74
2019-11-04 16:00:00 15.6 21 Oeste 35 Oeste 0.2 960.8 0.3 73
2019-11-04 15:00:00 17.7 15 Oeste 30 Oeste 0 960 -1.5 68
2019-11-04 14:00:00 20.4 17 Sudoeste 35 Oeste 0 959.8 -2.1 48
2019-11-04 13:00:00 20.2 9 Oeste 32 Oeste 0 960.5 -1.7 48
2019-11-04 12:00:00 18.6 8 Nordeste 15 Este 0 961.5 -0.9 59
2019-11-04 11:00:00 16.5 13 Este 21 Este 0 961.9 -0.4 66
2019-11-04 10:00:00 15.2 14 Este 18 Este 0 962.2 -0.3 71
2019-11-04 09:00:00 12.8 8 Este 11 Este 0 962.4 -0.4 78
2019-11-04 08:00:00 10.6 6 Nordeste 9 Este 0 962.3 -0.6 87
2019-11-04 07:00:00 10.9 5 Este 11 Sudeste 0 962.5 -0.6 85
2019-11-04 06:00:00 11.1 4 Noroeste 13 Este 0 962.8 -0.7 83
2019-11-04 05:00:00 11.4 5 Sudeste 13 Nordeste 0 962.9 -1 79
2019-11-04 04:00:00 11.8 10 Este 15 Sudeste 0 963.1 -0.7 78
2019-11-04 03:00:00 12.3 10 Sudeste 17 Sudeste 0 963.5 -0.7 70
2019-11-04 02:00:00 11.9 5 Este 15 Este 0 963.9 -0.4 78
2019-11-04 01:00:00 12 11 Este 17 Norte 0 963.8 -0.5 80
2019-11-04 00:00:00 13.1 4 Norte 15 Este 0 964.2 0.3 77
2019-11-03 23:00:00 12.7 5 Sudeste 9 Este 0 964.3 0 75
2019-11-03 22:00:00 12.8 2 Este 9 Norte 0 964.3 0 74
2019-11-03 21:00:00 13.5 3 Sudoeste 11 Oeste 0 963.9 -0.4 64
2019-11-03 20:00:00 14.2 8 Oeste 15 Sudoeste 0 964.3 1 58
2019-11-03 19:00:00 15 8 Oeste 32 Sudoeste 0 964.3 1 52
2019-11-03 18:00:00 15.9 16 Oeste 39 Oeste 0 964.3 1.5 47
2019-11-03 17:00:00 16.9 22 Oeste 45 Oeste 0 963.3 0.9 43
2019-11-03 16:00:00 17.4 23 Oeste 50 Oeste 0 963.3 0.8 39
2019-11-03 15:00:00 16.5 31 Oeste 46 Oeste 0 962.8 0.2 40
2019-11-03 14:00:00 16 23 Oeste 37 Oeste 0 962.4 0.7 42
2019-11-03 13:00:00 15.9 17 Oeste 30 Oeste 0 962.5 2 49
2019-11-03 12:00:00 14.1 16 Oeste 30 Oeste 0 962.6 3.4 55
2019-11-03 11:00:00 12.8 19 Oeste 42 Sudoeste 0 961.7 3.9 56
2019-11-03 10:00:00 12.6 28 Oeste 59 Sudoeste 0 960.5 4.3 54
2019-11-03 09:00:00 11.6 28 Oeste 46 Oeste 0 959.2 7 62
2019-11-03 08:00:00 10.8 22 Oeste 45 Oeste 0.6 957.8 5.6 72
2019-11-03 07:00:00 11.2 15 Oeste 71 Oeste 1.3 956.2 4 87
2019-11-03 06:00:00 17.9 39 Oeste 67 Sudoeste 0 952.2 -1.5 54
2019-11-03 05:00:00 14 6 Sudeste 15 Este 0 952.2 -2.8 74
2019-11-03 04:00:00 14.2 5 Este 9 Norte 0 952.2 -3.9 74
2019-11-03 03:00:00 14 11 Este 13 Este 0 953.7 -3 74
2019-11-03 02:00:00 15.7 3 Sur 18 Oeste 0 955 -3 60
2019-11-03 01:00:00 15.5 6 Sudoeste 15 Sudoeste 0 956.1 -2.4 60
2019-11-03 00:00:00 16 8 Sur 13 Oeste 0 956.7 -2.4 59
2019-11-02 23:00:00 15.9 10 Oeste 18 Noroeste 0 958 -2 59
2019-11-02 22:00:00 15.8 7 Oeste 11 Sudoeste 0 958.5 -2 58
2019-11-02 21:00:00 14.8 2 Oeste 8 Sudoeste 0 959.1 -2.2 71
2019-11-02 20:00:00 15.3 5 Este 11 Oeste 0 960 -1.7 78
2019-11-02 19:00:00 16.9 4 Sudoeste 18 Oeste 0 960.5 -1.5 63
2019-11-02 18:00:00 17.7 12 Oeste 30 Sudoeste 0 961.3 -0.8 60
2019-11-02 17:00:00 18.5 12 Oeste 24 Sudoeste 0 961.7 -1 63
2019-11-02 16:00:00 19.5 0 Calma 11 Sudoeste 0 962 -1.7 69
2019-11-02 15:00:00 19.5 9 Sudoeste 18 Sudoeste 0 962.1 -2.5 67
2019-11-02 14:00:00 18 4 Este 11 Nordeste 0 962.7 -2.8 78
2019-11-02 13:00:00 16.5 5 Oeste 17 Sudeste 0.7 963.7 -1.9 89
2019-11-02 12:00:00 16.6 8 Sur 22 Sur 0.6 964.6 -1.1 83
2019-11-02 11:00:00 15.9 8 Sudeste 13 Este 0.9 965.5 -0.2 92
2019-11-02 10:00:00 14.7 0 Calma 11 Este 0.5 965.6 -0.2 97
2019-11-02 09:00:00 13.6 7 Nordeste 11 Este 0.1 965.7 -0.2 96
2019-11-02 08:00:00 12.8 3 Oeste 9 Nordeste 0 965.7 -0.7 96
2019-11-02 07:00:00 12.9 5 Norte 11 Este 0 965.8 -1.2 94
2019-11-02 06:00:00 15.8 4 Oeste 13 Sudoeste 0 965.9 -1.6 79
2019-11-02 05:00:00 16.1 8 Sudoeste 13 Sudoeste 0 966.4 -1.4 80
2019-11-02 04:00:00 13.8 5 Sur 9 Sudeste 0 967 -1.5 91
2019-11-02 03:00:00 12.6 5 Este 15 Nordeste 0 967.5 -1.3 94
2019-11-02 02:00:00 13.8 4 Sur 11 Oeste 0 967.8 -1.7 93
2019-11-02 01:00:00 14.1 0 Calma 9 Norte 0 968.5 -1.1 93
2019-11-02 00:00:00 16.4 6 Oeste 15 Sudoeste 0 968.8 -0.6 83
2019-11-01 23:00:00 15.6 11 Este 18 Este 0 969.5 0 91
2019-11-01 22:00:00 16.1 3 Norte 11 Sudoeste 0 969.6 -0.4 88
2019-11-01 21:00:00 16.2 6 Sudeste 18 Sudoeste 0 969.4 -0.3 93
2019-11-01 20:00:00 17 3 Oeste 11 Oeste 0.4 969.5 -0.9 94
2019-11-01 19:00:00 17.1 5 Norte 11 Oeste 0 970 -0.5 95
2019-11-01 18:00:00 17.6 10 Nordeste 13 Sudeste 0.5 969.7 -1.5 94
2019-11-01 17:00:00 19.2 3 Nordeste 15 Este 0.4 970.4 -1.6 89
2019-11-01 16:00:00 20.2 12 Este 18 Este 0 970.5 -2.7 78
2019-11-01 15:00:00 21.2 11 Este 15 Este 0 971.2 -3.1 73
2019-11-01 14:00:00 21.5 12 Este 18 Este 0 972 -3.4 71
2019-11-01 13:00:00 19.5 10 Este 15 Este 0 973.2 -2.5 77
2019-11-01 12:00:00 17.9 6 Este 11 Este 0 974.3 -1.7 81
2019-11-01 11:00:00 15.6 6 Nordeste 13 Este 0 975.4 -0.5 88
2019-11-01 10:00:00 14.4 11 Este 13 Este 0 975.7 -0.4 92
2019-11-01 09:00:00 13.1 8 Nordeste 13 Este 0 976 -0.2 96
2019-11-01 08:00:00 12.4 3 Este 9 Nordeste 0 975.9 -0.7 96
2019-11-01 07:00:00 12.7 6 Norte 11 Nordeste 0 976.1 -0.9 97
2019-11-01 06:00:00 13.2 7 Este 9 Sudeste 0 976.2 -1.4 97
2019-11-01 05:00:00 13.2 0 Calma 5 Sudoeste 0 976.6 -1.3 96
2019-11-01 04:00:00 12.8 4 Nordeste 5 Este 0 977 -1.1 97
2019-11-01 03:00:00 13.1 0 Calma 4 Oeste 0 977.6 -1.1 95
2019-11-01 02:00:00 13.2 5 Sudoeste 8 Sudoeste 0 977.9 -1.1 94
2019-11-01 01:00:00 12.8 0 Calma 4 Sudoeste 0 978.1 -1.1 96
2019-11-01 00:00:00 13.1 0 Calma 9 Noroeste 0 978.7 -0.5 95
2019-10-31 23:00:00 13.7 5 Oeste 11 Oeste 0 979 -0.6 93
2019-10-31 22:00:00 13.9 0 Calma -- -- 0 979.2 0 92
2019-10-31 21:00:00 13.8 5 Nordeste 11 Este 0 979.2 0.2 90
2019-10-31 20:00:00 14.6 4 Norte 9 Nordeste 0 979.6 0.9 88
2019-10-31 19:00:00 16.6 2 Sudoeste 5 Sur 0 979.2 0.3 78
2019-10-31 18:00:00 18.5 3 Noroeste 9 Norte 0 979 0 68
2019-10-31 17:00:00 20.7 6 Noroeste 13 Norte 0 978.7 -0.7 58
2019-10-31 16:00:00 20.4 5 Noroeste 13 Norte 0 978.9 -1.2 60
2019-10-31 15:00:00 20.6 6 Norte 15 Oeste 0 979 -1.5 57
2019-10-31 14:00:00 20.6 7 Oeste 18 Norte 0 979.4 -1.2 62
2019-10-31 13:00:00 19.6 10 Norte 17 Norte 0 980.1 -0.5 69
2019-10-31 12:00:00 19 8 Oeste 18 Noroeste 0 980.5 0.5 69
2019-10-31 11:00:00 17.4 9 Oeste 15 Oeste 0 980.6 1.5 79
2019-10-31 10:00:00 15.9 6 Oeste 13 Sudoeste 0 980.6 1.8 88
2019-10-31 09:00:00 14.3 7 Oeste -- -- 0 980 1.4 96
2019-10-31 08:00:00 13.3 4 Oeste 8 Sudoeste 0 979.1 0.6 98
2019-10-31 07:00:00 14.3 2 Oeste 8 Oeste 0 978.8 0.4 97
2019-10-31 06:00:00 15.1 4 Oeste 11 Oeste 0 978.6 0 95
2019-10-31 05:00:00 15.3 8 Oeste 21 Sudoeste 0 978.5 0.2 93
2019-10-31 04:00:00 15.6 9 Oeste 15 Oeste 0.2 978.4 0.3 95
2019-10-31 03:00:00 15.9 5 Noroeste 17 Oeste 1.4 978.6 0.3 95
2019-10-31 02:00:00 17.1 10 Oeste 18 Oeste 0.2 978.3 0.1 84
2019-10-31 01:00:00 17.1 11 Sudoeste 15 Oeste 0 978.1 -0.1 78
2019-10-31 00:00:00 17 9 Oeste 17 Oeste 0 978.3 0.2 77
2019-10-30 23:00:00 17.2 11 Oeste 15 Oeste 0 978.2 0.4 77
2019-10-30 22:00:00 17 9 Oeste 13 Sudoeste 0 978.2 0.5 79
2019-10-30 21:00:00 17.8 8 Sudoeste 17 Oeste 0 978.1 0.9 76
2019-10-30 20:00:00 17.1 4 Oeste 11 Oeste 0 977.8 0.5 79
2019-10-30 19:00:00 16.8 2 Sudoeste 5 Oeste 0 977.7 0.5 81
2019-10-30 18:00:00 18.5 4 Sudoeste 13 Sur 0 977.2 -0.1 75
2019-10-30 17:00:00 19.1 0 Calma 11 Sudeste 0 977.3 -0.3 75
2019-10-30 16:00:00 19.6 5 Sudeste 17 Sudeste 0 977.2 -0.8 66
2019-10-30 15:00:00 20.1 6 Sudeste 11 Oeste 0 977.3 -1.3 64
2019-10-30 14:00:00 20 9 Oeste 13 Oeste 0 977.6 -1.4 64
2019-10-30 13:00:00 19.9 7 Oeste 17 Oeste 0 978 -1.2 64
2019-10-30 12:00:00 19 11 Oeste 18 Oeste 0 978.6 -0.6 67
2019-10-30 11:00:00 16.6 2 Norte 5 Norte 0 979 0.6 74
2019-10-30 10:00:00 13.6 3 Sudoeste 8 Sudoeste 0 979.2 1.1 81
2019-10-30 09:00:00 12 4 Oeste 9 Oeste 0 979.2 1.1 87
2019-10-30 08:00:00 9.9 4 Sudoeste 9 Sudoeste 0 978.4 0.4 94
2019-10-30 07:00:00 9.7 6 Sudoeste 9 Oeste 0 978.1 0.1 94
2019-10-30 06:00:00 9.7 0 Calma 11 Sudoeste 0 978.1 -0.2 91
2019-10-30 05:00:00 10.9 9 Sudoeste 11 Sudoeste 0 978 -0.2 91
2019-10-30 04:00:00 10.5 0 Calma 9 Sudoeste 0 978 -0.2 93
2019-10-30 03:00:00 11 7 Sudoeste 9 Sudoeste 0 978.3 0.3 94
2019-10-30 02:00:00 11.1 5 Oeste 9 Oeste 0 978.2 0.4 96
2019-10-30 01:00:00 11.5 4 Oeste 9 Oeste 0 978.2 0.8 95
2019-10-30 00:00:00 12 0 Calma 8 Oeste 0 978 0.8 90
2019-10-29 23:00:00 14.3 6 Oeste 13 Oeste 0 977.8 1.4 84
2019-10-29 22:00:00 15.8 7 Oeste 13 Oeste 0 977.4 1.7 79
2019-10-29 21:00:00 16.9 9 Oeste 13 Oeste 0 977.2 2 74
2019-10-29 20:00:00 17.9 10 Oeste 17 Oeste 0 976.4 1.6 70
2019-10-29 19:00:00 18.1 10 Oeste 15 Oeste 0 975.7 1.2 68
2019-10-29 18:00:00 20 8 Oeste 22 Oeste 0 975.2 0.7 61
2019-10-29 17:00:00 21.3 13 Oeste 24 Oeste 0 974.8 0 56
2019-10-29 16:00:00 20.8 14 Oeste 28 Oeste 0 974.5 -0.8 58
2019-10-29 15:00:00 20.6 17 Oeste 26 Sudoeste 0 974.5 -1.2 61
2019-10-29 14:00:00 21.4 14 Oeste 28 Oeste 0 974.8 -1.1 59
2019-10-29 13:00:00 20.4 18 Oeste 28 Sudoeste 0 975.3 -0.4 65
2019-10-29 12:00:00 19.3 13 Oeste 21 Oeste 0 975.7 0.5 70
2019-10-29 11:00:00 16.4 2 Oeste 8 Oeste 0 975.9 1.1 79
2019-10-29 10:00:00 13.1 3 Sudoeste 5 Oeste 0 975.7 1.3 88
2019-10-29 09:00:00 10.8 4 Oeste 8 Oeste 0 975.2 1 98
2019-10-29 08:00:00 9.2 3 Nordeste 8 Sudoeste 0 974.8 0.7 99
2019-10-29 07:00:00 9 2 Nordeste 8 Sudoeste 0 974.4 0.4 97
2019-10-29 06:00:00 9.8 2 Oeste 5 Oeste 0 974.2 0.1 99
2019-10-29 05:00:00 9.9 0 Calma -- -- 0 974.1 -0.1 99
2019-10-29 04:00:00 9.7 0 Calma 5 Oeste 0 974 -0.3 98
2019-10-29 03:00:00 10.4 0 Calma -- -- 0 974.1 -0.1 99
2019-10-29 02:00:00 10.2 0 Calma 5 Norte 0 974.2 -0.1 98
2019-10-29 01:00:00 11 0 Calma 5 Sudoeste 0 974.3 0.2 97
2019-10-29 00:00:00 11.4 0 Calma 5 Oeste 0 974.2 0.2 97
2019-10-28 23:00:00 11.8 0 Calma 8 Oeste 0 974.3 0.4 95
2019-10-28 22:00:00 12.7 5 Oeste 8 Oeste 0 974.1 0.4 97
2019-10-28 21:00:00 13.1 5 Oeste 9 Oeste 0 974 0.7 95
2019-10-28 20:00:00 14 0 Calma 5 Noroeste 0 973.9 0.5 93
2019-10-28 19:00:00 14.9 0 Calma 5 Norte 0 973.7 0.1 86
2019-10-28 18:00:00 17 4 Este 9 Este 0 973.3 -0.6 78
2019-10-28 17:00:00 19.5 10 Este 15 Este 0 973.4 -0.9 66
2019-10-28 16:00:00 20.7 12 Este 17 Este 0 973.6 -1.5 61
2019-10-28 15:00:00 20.5 12 Este 18 Este 0 973.9 -2 60
2019-10-28 14:00:00 19.5 9 Este 17 Este 0 974.3 -1.8 65
2019-10-28 13:00:00 18.1 10 Este 17 Este 0 975.1 -1.1 71
2019-10-28 12:00:00 16.3 8 Este 11 Este 0 975.9 0.2 78
2019-10-28 11:00:00 14 0 Calma 9 Noroeste 0 976.1 0.6 90
2019-10-28 10:00:00 13.3 0 Calma 9 Oeste 0 976.2 0.8 93
2019-10-28 09:00:00 11.9 0 Calma 5 Oeste 0 975.7 0.2 98
2019-10-28 08:00:00 11.5 0 Calma 9 Sudoeste 0 975.5 -0.2 98
2019-10-28 07:00:00 11.5 0 Calma 5 Oeste 0 975.4 -0.7 98
2019-10-28 06:00:00 11.6 0 Calma 4 Oeste 0 975.5 -1.1 98
2019-10-28 05:00:00 11.5 0 Calma 8 Oeste 0 975.7 -1.1 98
2019-10-28 04:00:00 11.7 5 Oeste 8 Oeste 0 976.1 -0.9 98
2019-10-28 03:00:00 11.8 0 Calma 9 Sudoeste 0 976.6 -0.5 97
2019-10-28 02:00:00 11.8 0 Calma 8 Sudoeste 0 976.8 -0.4 98
2019-10-28 01:00:00 11.8 4 Oeste 8 Oeste 0 977 -0.5 97
2019-10-28 00:00:00 12.1 2 Este 8 Oeste 0 977.1 -0.6 95
2019-10-27 23:00:00 12.8 0 Calma 8 Oeste 0 977.2 -0.1 95
2019-10-27 22:00:00 13 0 Calma 9 Nordeste 0 977.5 0.1 93
2019-10-27 21:00:00 13.5 3 Oeste 9 Sudoeste 0 977.7 0.9 92
2019-10-27 20:00:00 14 0 Calma 8 Oeste 0 977.3 0.2 91
2019-10-27 19:00:00 14.9 6 Sudoeste 9 Sudoeste 0 977.4 0.2 87
2019-10-27 18:00:00 16.5 0 Calma 9 Este 0 976.8 -0.6 81
2019-10-27 17:00:00 18.2 8 Este 17 Este 0 977.1 -1 68
2019-10-27 16:00:00 18.3 13 Este 22 Este 0 977.2 -1.8 67
2019-10-27 15:00:00 18 14 Este 22 Este 0 977.4 -2.2 68
2019-10-27 14:00:00 17.9 13 Este 21 Este 0 978.1 -2 68
2019-10-27 13:00:00 17.2 11 Este 21 Este 0 979 -1.1 71
2019-10-27 12:00:00 15.6 13 Este 22 Este 0 979.6 -0.4 79
2019-10-27 11:00:00 13.2 4 Nordeste 9 Nordeste 0 980.1 0.6 88
2019-10-27 10:00:00 11 0 Calma 4 Oeste 0 980.1 1 92
2019-10-27 09:00:00 8.2 0 Calma 8 Sudoeste 0 980 1.2 99
2019-10-27 08:00:00 7.2 0 Calma 5 Oeste 0 979.5 0.6 100
2019-10-27 07:00:00 6.8 0 Calma 5 Este 0 979.1 0.1 100
2019-10-27 06:00:00 6.8 0 Calma -- -- 0 978.8 -0.4 99
2019-10-27 05:00:00 7.4 0 Calma 4 Oeste 0 978.9 -0.2 99
2019-10-27 04:00:00 6.7 0 Calma 5 Norte 0 979 -0.2 98
2019-10-27 03:00:00 8.1 0 Calma 4 Sur 0 979.2 0.1 99
2019-10-27 02:00:00 8.2 0 Calma 2 Oeste 0 979.1 -0.1 99
2019-10-27 01:00:00 9.6 0 Calma 4 Este 0 979.1 0.6 98
2019-10-27 00:00:00 10.8 0 Calma 5 Oeste 0 979.2 1.4 98
2019-10-26 23:00:00 11 0 Calma 5 Sudoeste 0 978.8 1.4 95
2019-10-26 22:00:00 12.1 4 Sudoeste 8 Oeste 0 978.5 1.5 94
2019-10-26 21:00:00 13.2 5 Oeste 8 Oeste 0 977.8 1 91
2019-10-26 20:00:00 14.6 2 Sudoeste -- -- 0 977.4 0.2 87
2019-10-26 19:00:00 17.3 0 Calma 8 Este 0 977 -0.6 79
2019-10-26 18:00:00 19.3 6 Este 15 Este 0 976.8 -1.5 63
2019-10-26 17:00:00 19.5 11 Este 18 Este 0 977.2 -2.1 62
2019-10-26 16:00:00 18.7 10 Este 24 Este 0 977.6 -2.2 66
2019-10-26 15:00:00 17.6 14 Este 22 Este 0 978.3 -1.9 68
2019-10-26 14:00:00 16 13 Este 21 Este 0 979.3 -0.9 74
2019-10-26 13:00:00 13.8 13 Este 17 Este 0 979.8 0 87
2019-10-26 12:00:00 12.4 7 Este 11 Nordeste 0 980.2 0.9 94
2019-10-26 11:00:00 10 0 Calma 8 Norte 0 980.2 1.5 96
2019-10-26 10:00:00 8.1 3 Norte 5 Nordeste 0 979.8 1.2 100
2019-10-26 09:00:00 6.3 0 Calma -- -- 0 979.3 0.7 100
2019-10-26 08:00:00 6.3 0 Calma -- -- 0 978.7 0.1 99
2019-10-26 07:00:00 6.4 0 Calma 9 Oeste 0 978.6 -0.1 98
2019-10-26 06:00:00 6.8 0 Calma 8 Sudoeste 0 978.6 0.1 98
2019-10-26 05:00:00 7 0 Calma 4 Sudoeste 0 978.6 -0.1 98
2019-10-26 04:00:00 7.9 0 Calma 5 Este 0 978.7 0.1 99
2019-10-26 03:00:00 8.4 0 Calma 4 Oeste 0 978.5 -0.4 97
2019-10-26 02:00:00 9.8 2 Oeste 5 Oeste 0 978.7 -0.2 99
2019-10-26 01:00:00 10.5 0 Calma 5 Oeste 0 978.6 0 97
2019-10-26 00:00:00 10.7 2 Este 8 Este 0 978.9 0.5 95
2019-10-25 23:00:00 12.4 3 Sudoeste 5 Sudoeste 0 978.9 0.8 96
2019-10-25 22:00:00 13.1 0 Calma 5 Sudeste 0 978.6 0.8 94
2019-10-25 21:00:00 14.2 0 Calma 5 Norte 0 978.4 0.5 90
2019-10-25 20:00:00 16.7 5 Oeste 11 Sudoeste 0 978.1 0.2 78
2019-10-25 19:00:00 19.2 4 Sudoeste 11 Oeste 0 977.8 -0.2 69
2019-10-25 18:00:00 22.2 5 Oeste 9 Oeste 0 977.9 -1 53
2019-10-25 17:00:00 22.1 6 Sudoeste 13 Oeste 0 977.9 -2 51
2019-10-25 16:00:00 21.5 5 Oeste 11 Oeste 0 978 -2.7 54
2019-10-25 15:00:00 20.1 7 Oeste 17 Sudoeste 0 978.9 -2.2 58
2019-10-25 14:00:00 18.6 10 Oeste 18 Oeste 0 979.9 -1.5 61
2019-10-25 13:00:00 17.4 10 Oeste 22 Oeste 0 980.7 -1.1 67
2019-10-25 12:00:00 15.3 8 Oeste 13 Oeste 0 981.1 -0.4 76
2019-10-25 11:00:00 11.5 6 Sudoeste 8 Oeste 0 981.4 0.2 88
2019-10-25 10:00:00 9.2 0 Calma 8 Oeste 0 981.8 0.8 97
2019-10-25 09:00:00 7.3 7 Sudoeste 8 Oeste 0 981.5 0.8 99
2019-10-25 08:00:00 6.7 3 Este 5 Este 0 981.2 0.7 99
2019-10-25 07:00:00 6.5 6 Nordeste 8 Nordeste 0 981 0.5 97
2019-10-25 06:00:00 7.7 0 Calma 8 Oeste 0 980.7 0.2 97
2019-10-25 05:00:00 8.2 0 Calma 5 Este 0 980.5 0.1 99
2019-10-25 04:00:00 7.7 0 Calma 5 Oeste 0 980.5 0.2 97
2019-10-25 03:00:00 8.8 0 Calma -- -- 0 980.5 0.3 97
2019-10-25 02:00:00 9.3 0 Calma 8 Nordeste 0 980.4 0.8 97
2019-10-25 01:00:00 10.3 0 Calma 5 Norte 0 980.3 1.1 95
2019-10-25 00:00:00 10.8 0 Calma 5 Sudoeste 0 980.2 1.6 91
2019-10-24 23:00:00 11.6 5 Oeste 8 Sudoeste 0 979.6 1.8 91
2019-10-24 22:00:00 13.1 6 Oeste 11 Sudoeste 0 979.2 2.2 85
2019-10-24 21:00:00 14.1 0 Calma 11 Oeste 0 978.6 2.3 79
2019-10-24 20:00:00 14.3 8 Oeste 13 Sudoeste 0 977.8 1.8 77
2019-10-24 19:00:00 15.3 6 Sudoeste 28 Oeste 0 977 1.2 69
2019-10-24 18:00:00 16.5 19 Oeste 32 Sudoeste 0 976.3 0.9 63
2019-10-24 17:00:00 15.5 10 Oeste 28 Oeste 0 976 0.9 66
2019-10-24 16:00:00 15.2 12 Oeste 24 Oeste 0 975.8 0.4 65
2019-10-24 15:00:00 15.7 12 Oeste 18 Oeste 0 975.4 0.6 61
2019-10-24 14:00:00 13.7 10 Oeste 26 Oeste 0 975.1 0.5 69
2019-10-24 13:00:00 13.3 15 Oeste 24 Oeste 0 975.4 1.7 67
2019-10-24 12:00:00 12.2 11 Oeste 18 Oeste 0 974.8 1.8 72
2019-10-24 11:00:00 11.5 6 Oeste 13 Oeste 0 974.6 2.5 78
2019-10-24 10:00:00 10.1 5 Oeste 13 Oeste 0 973.7 2 87
2019-10-24 09:00:00 9.3 11 Oeste 15 Sudoeste 0 973 2.1 91
2019-10-24 08:00:00 9.5 10 Oeste 22 Oeste 0 972.1 1.7 88
2019-10-24 07:00:00 9.7 12 Oeste 22 Oeste 0 971.7 1.9 90
2019-10-24 06:00:00 9.7 9 Oeste 15 Oeste 0 970.9 1.6 94
2019-10-24 05:00:00 9.8 10 Oeste 21 Oeste 0.1 970.4 1.8 92
2019-10-24 04:00:00 10.2 12 Oeste 22 Sudoeste 0.5 969.8 1.8 93
2019-10-24 03:00:00 10.4 13 Oeste 24 Oeste 0.8 969.3 2.1 91
2019-10-24 02:00:00 11.3 14 Oeste 24 Sudoeste 0.3 968.6 2 91
2019-10-24 01:00:00 11.9 13 Oeste 24 Sudoeste 0 968 2.1 91
2019-10-24 00:00:00 12 12 Oeste 17 Oeste 0.2 967.2 1.7 90
2019-10-23 23:00:00 12.1 11 Oeste 28 Oeste 0.5 966.6 1.6 93
2019-10-23 22:00:00 12.5 0 Calma 13 Sudoeste 1.8 965.9 1.5 96
2019-10-23 21:00:00 12.9 0 Calma -- -- 0 965.5 1.5 93
2019-10-23 20:00:00 13.4 0 Calma 5 Norte 0 965 1.3 87
2019-10-23 19:00:00 13.6 7 Norte 13 Nordeste 0 964.4 0.6 87
2019-10-23 18:00:00 14.3 9 Nordeste 18 Nordeste 0 964 0.1 82
2019-10-23 17:00:00 14.4 17 Este 22 Este 0 963.7 0.1 83
2019-10-23 16:00:00 14.1 17 Nordeste 22 Nordeste 0 963.8 -0.5 84
2019-10-23 15:00:00 14.5 16 Este 18 Este 0 963.9 0.6 80
2019-10-23 14:00:00 14.3 10 Este 17 Este 0 963.6 -0.6 80
2019-10-23 13:00:00 14.4 12 Este 17 Este 0 964.3 -0.1 85
2019-10-23 12:00:00 13.1 6 Sudoeste 11 Sudoeste 0 963.3 0.2 90
2019-10-23 11:00:00 11.1 3 Oeste 9 Nordeste 0.5 964.2 1.3 97
2019-10-23 10:00:00 10.8 6 Este 11 Este 1.2 964.4 1.7 96
2019-10-23 09:00:00 10.5 0 Calma 11 Oeste 0 963.1 -0.1 97
2019-10-23 08:00:00 10.2 3 Sudoeste 9 Sudoeste 0 962.9 -0.7 97
2019-10-23 07:00:00 10.1 3 Oeste 17 Oeste 0 962.7 -1.1 95
2019-10-23 06:00:00 10.3 9 Oeste 15 Oeste 0 963.2 -0.8 96
2019-10-23 05:00:00 10.4 6 Oeste 17 Oeste 0 963.6 -2.6 96
2019-10-23 04:00:00 10.1 12 Sudoeste 18 Sudoeste 0 963.8 -2.7 96
2019-10-23 03:00:00 9.8 5 Sudoeste 11 Sudoeste 0.5 964 -3.1 98
2019-10-23 02:00:00 9.9 3 Noroeste 13 Oeste 0.3 966.2 -1.3 97
2019-10-23 01:00:00 9.8 9 Oeste 22 Sudoeste 0 966.5 -1 96
2019-10-23 00:00:00 9.6 10 Oeste 22 Sudoeste 0.2 967.1 -1.2 96
2019-10-22 23:00:00 9.6 13 Sudoeste 26 Oeste 0.2 967.5 -0.4 95
2019-10-22 22:00:00 9.4 17 Sudoeste 24 Oeste 0.2 967.5 -1.3 94
2019-10-22 21:00:00 9.7 11 Oeste 22 Sudoeste 0.2 968.3 -1.4 91
2019-10-22 20:00:00 9.6 12 Oeste 21 Sudoeste 0.4 967.9 -2 89
2019-10-22 19:00:00 9.6 12 Sudoeste 18 Oeste 1.6 968.8 -2.7 92
2019-10-22 18:00:00 10.2 12 Oeste 24 Oeste 1.2 969.7 -2.3 87
2019-10-22 17:00:00 10.6 14 Oeste 24 Sudoeste 1.4 969.9 -3.5 90
2019-10-22 16:00:00 11.2 11 Oeste 18 Sudoeste 0.9 971.5 -2.9 87
2019-10-22 15:00:00 11.2 12 Oeste 21 Oeste 0.3 972 -3.2 84
2019-10-22 14:00:00 11.1 13 Oeste 18 Oeste 0 973.4 -2.3 80
2019-10-22 13:00:00 10.8 10 Oeste 22 Oeste 0 974.4 -1.5 80
2019-10-22 12:00:00 10 15 Oeste 26 Sudoeste 0 975.2 -0.4 84
2019-10-22 11:00:00 8.5 11 Oeste 21 Oeste 0 975.7 0 91
2019-10-22 10:00:00 7.5 12 Oeste 17 Oeste 0 975.9 -0.4 93
2019-10-22 09:00:00 6.9 12 Oeste 21 Sudoeste 0 975.6 -1.4 94
2019-10-22 08:00:00 6.8 12 Oeste 15 Oeste 0 975.7 -1.5 92
2019-10-22 07:00:00 6.6 5 Oeste 11 Oeste 0 976.3 -0.6 93
2019-10-22 06:00:00 6.4 8 Oeste 9 Oeste 0 977 -0.4 92
2019-10-22 05:00:00 6 8 Sudoeste 13 Sudoeste 0 977.2 -0.5 94
2019-10-22 04:00:00 5.6 4 Oeste 8 Oeste 0 976.9 -0.5 96
2019-10-22 03:00:00 6 4 Sudoeste 8 Oeste 0 977.4 0 95
2019-10-22 02:00:00 6.3 0 Calma 5 Oeste 0 977.7 0.1 95
2019-10-22 01:00:00 6.7 0 Calma -- -- 0 977.4 0.4 94
2019-10-22 00:00:00 7.4 0 Calma -- -- 0 977.4 0.7 94
2019-10-21 23:00:00 8.2 0 Calma 9 Noroeste 0 977.6 1.5 92
2019-10-21 22:00:00 8.8 0 Calma -- -- 0 977 1.6 87
2019-10-21 21:00:00 10.4 0 Calma -- -- 0 976.7 1.7 87
2019-10-21 20:00:00 11.9 0 Calma -- -- 0 976.1 1 77
2019-10-21 19:00:00 13.4 0 Calma 9 Sudeste 0 975.4 0.3 72
2019-10-21 18:00:00 15.8 5 Sudeste 11 Sudeste 0 975 -0.6 45
2019-10-21 17:00:00 17.2 6 Sudeste 13 Sudeste 0 975.1 -0.8 37
2019-10-21 16:00:00 16.8 7 Nordeste 13 Norte 0 975.1 -1.4 42
2019-10-21 15:00:00 16.2 5 Sudoeste 9 Oeste 0 975.6 -1 45
2019-10-21 14:00:00 14.8 7 Sudoeste 18 Sudoeste 0 975.9 -0.8 55
2019-10-21 13:00:00 13.3 9 Oeste 21 Oeste 0 976.5 0.1 65
2019-10-21 12:00:00 11.4 10 Oeste 18 Oeste 0 976.6 0.7 71
2019-10-21 11:00:00 9.6 8 Oeste 11 Oeste 0 976.7 1.1 79
2019-10-21 10:00:00 7.7 8 Oeste 15 Oeste 0 976.4 1.1 88
2019-10-21 09:00:00 6.1 9 Oeste 13 Oeste 0 975.9 1.2 93
2019-10-21 08:00:00 5.7 6 Sudoeste 8 Oeste 0 975.6 1.2 95
2019-10-21 07:00:00 6 6 Oeste 8 Oeste 0 975.3 1.1 96
2019-10-21 06:00:00 6.7 5 Oeste 9 Sudoeste 0 974.7 0.5 94
2019-10-21 05:00:00 7.3 6 Sudoeste 9 Sudoeste 0 974.4 0.5 91
2019-10-21 04:00:00 8.2 3 Oeste 11 Oeste 0 974.2 0.6 90
2019-10-21 03:00:00 8.5 5 Oeste 9 Sudoeste 0 974.2 0.9 93
2019-10-21 02:00:00 7.9 6 Sudoeste 9 Oeste 0 973.9 1.1 92
2019-10-21 01:00:00 8.5 0 Calma 8 Oeste 0 973.6 1.4 92
2019-10-21 00:00:00 9 3 Oeste 11 Oeste 0 973.3 1.8 89
2019-10-20 23:00:00 9.6 8 Oeste 15 Oeste 0 972.8 2.2 82
2019-10-20 22:00:00 9.8 7 Oeste 28 Sudoeste 0 972.2 2.8 84
2019-10-20 21:00:00 10.5 13 Oeste 22 Oeste 0.1 971.5 3 89
2019-10-20 20:00:00 11 13 Oeste 21 Oeste 0.1 970.6 3 89
2019-10-20 19:00:00 11.2 11 Oeste 18 Sudoeste 0.5 969.4 2.5 90
2019-10-20 18:00:00 11.6 15 Oeste 22 Oeste 0.2 968.5 1.9 88
2019-10-20 17:00:00 13 9 Noroeste 13 Oeste 0.1 967.6 1.5 77
2019-10-20 16:00:00 12.3 9 Oeste 15 Sudoeste 1.4 966.9 1 88
2019-10-20 15:00:00 12.4 12 Oeste 17 Oeste 0.7 966.6 0.9 88
2019-10-20 14:00:00 12.9 11 Oeste 21 Norte 1.3 966.1 0.8 87
2019-10-20 13:00:00 15.1 11 Oeste 22 Oeste 0 965.9 1.2 65
2019-10-20 12:00:00 14.2 11 Oeste 18 Sudoeste 0 965.7 2.5 70
2019-10-20 11:00:00 13.6 6 Oeste 17 Oeste 0 965.3 2.3 76
2019-10-20 10:00:00 12.3 4 Oeste 9 Norte 0 964.7 2.4 87
2019-10-20 09:00:00 10.7 0 Calma 9 Norte 0 963.2 1.8 96
2019-10-20 08:00:00 11.2 2 Sudeste 9 Oeste 0 963 2.6 94
2019-10-20 07:00:00 12.5 7 Sudoeste 11 Oeste 0.2 962.3 2 93
2019-10-20 06:00:00 12.7 4 Oeste 17 Sudoeste 1.1 961.4 1.7 93
2019-10-20 05:00:00 13.3 8 Sudoeste 21 Noroeste 0.8 960.4 0.8 90
2019-10-20 04:00:00 14.6 15 Oeste 24 Oeste 0 960.3 -1.1 85
2019-10-20 03:00:00 14.4 12 Este 24 Este 0 959.7 -1.4 89
2019-10-20 02:00:00 14.2 19 Este 24 Este 1.3 959.6 -1.3 87
2019-10-20 01:00:00 15.9 3 Sur 22 Sudoeste 0.2 961.4 0.6 76
2019-10-20 00:00:00 17.6 8 Sur 13 Sudeste 0 961.1 -0.2 59
2019-10-19 23:00:00 18.3 9 Sur 13 Sudeste 0 960.9 -0.4 56
2019-10-19 22:00:00 18.8 12 Sudeste 18 Este 0 960.8 -0.6 53
2019-10-19 21:00:00 18.4 8 Este 21 Sudeste 0 961.3 -0.5 53
2019-10-19 20:00:00 19.4 15 Sudeste 32 Sudeste 0 961.3 -0.5 44
2019-10-19 19:00:00 19.8 22 Sudeste 32 Sudeste 0 961.4 -0.8 40
2019-10-19 18:00:00 20.6 22 Sudeste 35 Sudeste 0 961.8 -1.2 38
2019-10-19 17:00:00 21.8 19 Sur 32 Sur 0 961.8 -2.7 32
2019-10-19 16:00:00 21.7 18 Sudeste 30 Sudeste 0 962.2 -3.2 37
2019-10-19 15:00:00 21.8 14 Este 26 Este 0 963 -3.2 39
2019-10-19 14:00:00 19.1 9 Este 18 Nordeste 0 964.5 -1.7 57
2019-10-19 13:00:00 17 9 Este 13 Este 0 965.4 -1.2 67
2019-10-19 12:00:00 16.2 3 Este 9 Nordeste 0 966.2 -0.5 72
2019-10-19 11:00:00 15.3 2 Nordeste 9 Noroeste 0 966.2 -0.7 77
2019-10-19 10:00:00 13.4 3 Este 8 Nordeste 0 966.6 -0.5 87
2019-10-19 09:00:00 12.2 0 Calma 8 Oeste 0 966.7 -0.8 94
2019-10-19 08:00:00 12.6 2 Sudoeste 9 Norte 0 966.9 -0.7 92
2019-10-19 07:00:00 12.5 0 Calma 5 Este 0 967.1 -0.9 92
2019-10-19 06:00:00 12.8 0 Calma 5 Sudeste 0 967.5 -1.1 93
2019-10-19 05:00:00 12.7 0 Calma 5 Sur 0 967.6 -1.4 92
2019-10-19 04:00:00 12.8 2 Oeste 9 Sudoeste 0 968 -1.1 90
2019-10-19 03:00:00 13.6 2 Oeste 8 Este 0 968.6 -0.4 88
2019-10-19 02:00:00 14.1 5 Oeste 11 Oeste 0 969 -0.3 92
2019-10-19 01:00:00 14.2 7 Oeste 9 Oeste 0 969.1 -0.5 93
2019-10-19 00:00:00 14.2 7 Sudoeste 9 Sudoeste 0 969 -0.9 94
2019-10-18 23:00:00 15.4 0 Calma 8 Oeste 0 969.3 -0.5 89
2019-10-18 22:00:00 15.8 5 Oeste 9 Noroeste 0 969.6 -0.4 89
2019-10-18 21:00:00 16.7 6 Norte 11 Este 0 969.9 -0.5 82
2019-10-18 20:00:00 17.4 9 Este 15 Este 0 969.8 -1.3 75
2019-10-18 19:00:00 18.9 13 Este 21 Este 0 970 -1.6 69
2019-10-18 18:00:00 20.2 15 Este 22 Este 0 970.4 -1.5 58
2019-10-18 17:00:00 20.8 13 Este 21 Este 0 971.1 -1.6 57
2019-10-18 16:00:00 20.2 10 Este 13 Este 0 971.6 -1.9 60
2019-10-18 15:00:00 20.2 7 Este 17 Este 0 971.9 -2 60
2019-10-18 14:00:00 19.5 5 Nordeste 13 Nordeste 0 972.7 -1.5 63
2019-10-18 13:00:00 18.3 8 Este 13 Sudeste 0 973.5 -0.6 72
2019-10-18 12:00:00 16.2 8 Este 13 Nordeste 0 973.9 0.5 82
2019-10-18 11:00:00 15.4 6 Este 9 Este 0 974.2 1.1 85
2019-10-18 10:00:00 14.6 5 Sudeste 9 Sudeste 0 974.1 1 89
2019-10-18 09:00:00 14.1 6 Sudeste 9 Sudeste 0 973.4 0.6 91
2019-10-18 08:00:00 14 2 Este 9 Este 0 973.1 0.7 91
2019-10-18 07:00:00 14.1 6 Este 13 Este 0 973.1 0.9 89
2019-10-18 06:00:00 13.5 5 Este 9 Oeste 0 972.8 -0.2 92
2019-10-18 05:00:00 14.1 0 Calma 11 Este 0 972.4 -0.2 87
2019-10-18 04:00:00 13.6 5 Este 8 Este 0 972.2 -0.6 86
2019-10-18 03:00:00 15 5 Este 15 Este 0 973 0.1 77
2019-10-18 02:00:00 15.5 9 Este 15 Este 0 972.6 -0.2 71
2019-10-18 01:00:00 14.4 9 Este 11 Sudeste 0 972.8 0 74
2019-10-18 00:00:00 13.1 2 Oeste 5 Sudoeste 0 972.9 0.1 85
2019-10-17 23:00:00 13.1 0 Calma 8 Nordeste 0 972.8 0.1 83
2019-10-17 22:00:00 14.2 3 Este 9 Norte 0 972.8 0.3 80
2019-10-17 21:00:00 15.3 6 Norte 9 Norte 0 972.8 0.6 72
2019-10-17 20:00:00 17.2 3 Sudeste 11 Sudeste 0 972.7 0.2 68
2019-10-17 19:00:00 19.9 5 Este 17 Este 0 972.5 -0.4 60
2019-10-17 18:00:00 22.5 9 Este 15 Este 0 972.2 -1.4 41
2019-10-17 17:00:00 22 3 Este 17 Este 0 972.5 -1.6 42
2019-10-17 16:00:00 22.1 6 Este 15 Este 0 972.9 -1.6 40
2019-10-17 15:00:00 21.4 8 Nordeste 18 Este 0 973.6 -1 41
2019-10-17 14:00:00 19.8 8 Este 17 Este 0 974.1 -0.5 45
2019-10-17 13:00:00 17.7 9 Nordeste 13 Nordeste 0 974.5 0.2 50
2019-10-17 12:00:00 15.4 6 Nordeste 11 Sudeste 0 974.6 1.1 61
2019-10-17 11:00:00 13.9 2 Este 9 Este 0 974.6 1.6 67
2019-10-17 10:00:00 12.6 6 Nordeste 9 Nordeste 0 974.3 1.5 78
2019-10-17 09:00:00 11.8 6 Nordeste 8 Nordeste 0 973.5 0.7 88
2019-10-17 08:00:00 11.9 0 Calma 5 Sur 0 973 0.1 87
2019-10-17 07:00:00 11.5 2 Noroeste 5 Noroeste 0 972.8 -0.4 87
2019-10-17 06:00:00 11.5 4 Este 5 Este 0 972.8 -0.6 82
2019-10-17 05:00:00 11.2 5 Oeste 8 Oeste 0 972.9 -0.4 86
2019-10-17 04:00:00 11.4 4 Nordeste 11 Oeste 0 973.2 -0.5 77
2019-10-17 03:00:00 11.4 3 Oeste 8 Oeste 0 973.4 -0.3 84
2019-10-17 02:00:00 11.5 0 Calma 5 Noroeste 0 973.3 -0.3 83
2019-10-17 01:00:00 12.2 2 Noroeste 5 Noroeste 0 973.7 0.2 81
2019-10-17 00:00:00 13.2 0 Calma 5 Oeste 0 973.7 0.6 75
2019-10-16 23:00:00 14 0 Calma 5 Este 0 973.6 0.7 70
2019-10-16 22:00:00 14.5 0 Calma 11 Sur 0 973.5 0.8 62
2019-10-16 21:00:00 18 12 Sur 17 Sur 0 973.1 0.5 42
2019-10-16 20:00:00 18.9 11 Sur 17 Sudeste 0 972.9 -0.1 37
2019-10-16 19:00:00 20.2 9 Sudeste 11 Sudeste 0 972.7 -0.9 36
2019-10-16 18:00:00 21.8 7 Este 9 Nordeste 0 972.6 -1.8 32
2019-10-16 17:00:00 21.7 4 Noroeste 11 Sudoeste 0 973 -2.1 32
2019-10-16 16:00:00 20.9 3 Oeste 21 Nordeste 0 973.6 -2 31
2019-10-16 15:00:00 19.1 10 Nordeste 18 Nordeste 0 974.4 -1.9 41
2019-10-16 14:00:00 16.8 10 Este 17 Este 0 975.1 -1.4 50
2019-10-16 13:00:00 16.5 10 Este 15 Este 0 975.6 -0.9 52
2019-10-16 12:00:00 15 10 Este 17 Este 0 976.3 0 55
2019-10-16 11:00:00 12.6 8 Nordeste 11 Nordeste 0 976.5 0.8 62
2019-10-16 10:00:00 9.9 2 Noroeste 8 Oeste 0 976.5 0.8 80
2019-10-16 09:00:00 7.9 3 Oeste 5 Oeste 0 976.3 0.5 89
2019-10-16 08:00:00 6.3 0 Calma 5 Oeste 0 975.7 -0.2 91
2019-10-16 07:00:00 7.3 0 Calma 5 Oeste 0 975.7 -0.3 91
2019-10-16 06:00:00 7.2 3 Nordeste 8 Oeste 0 975.8 -0.7 87
2019-10-16 05:00:00 8.3 0 Calma 8 Oeste 0 975.9 -0.6 86
2019-10-16 04:00:00 9 0 Calma 8 Nordeste 0 976 -0.6 80
2019-10-16 03:00:00 9.7 0 Calma 8 Sudoeste 0 976.5 -0.3 79
2019-10-16 02:00:00 9.3 2 Sudoeste 9 Norte 0 976.5 -0.3 81
2019-10-16 01:00:00 8.5 5 Norte 9 Nordeste 0 976.6 0 77
2019-10-16 00:00:00 10.1 0 Calma 8 Norte 0 976.8 0.3 71
2019-10-15 23:00:00 11.2 6 Sudoeste 11 Oeste 0 976.8 0.4 69
2019-10-15 22:00:00 13 0 Calma 15 Sur 0 976.6 0.9 57
2019-10-15 21:00:00 14.8 12 Sudoeste 21 Sudoeste 0 976.5 0.9 43
2019-10-15 20:00:00 15.8 12 Sudoeste 22 Oeste 0 976.4 0.9 40
2019-10-15 19:00:00 16.9 10 Oeste 24 Oeste 0 975.7 0.2 40
2019-10-15 18:00:00 17.3 12 Oeste 28 Noroeste 0 975.6 -0.2 40
2019-10-15 17:00:00 17.9 14 Oeste 30 Noroeste 0 975.5 -0.9 35
2019-10-15 16:00:00 18.4 14 Oeste 33 Oeste 0 975.5 -1.2 35
2019-10-15 15:00:00 17.8 15 Oeste 37 Oeste 0 975.8 -1.2 38
2019-10-15 14:00:00 16.9 16 Oeste 32 Oeste 0 976.4 -0.5 41
2019-10-15 13:00:00 15.8 14 Oeste 33 Noroeste 0 976.7 0.3 47
2019-10-15 12:00:00 14.3 16 Oeste 33 Oeste 0 977 1.2 54
2019-10-15 11:00:00 12.6 14 Oeste 32 Sudoeste 0 976.9 1.6 60
2019-10-15 10:00:00 11 10 Oeste 28 Oeste 0 976.4 1.6 66
2019-10-15 09:00:00 9.3 12 Oeste 24 Oeste 0 975.8 1.5 72
2019-10-15 08:00:00 9.2 9 Oeste 18 Oeste 0 975.3 1.8 73
2019-10-15 07:00:00 9.4 10 Oeste 21 Oeste 0 974.8 1.3 72
2019-10-15 06:00:00 10.1 11 Oeste 33 Oeste 0 974.3 1.2 69
2019-10-15 05:00:00 10.7 14 Oeste 24 Oeste 0 973.5 1 67
2019-10-15 04:00:00 11.1 14 Oeste 33 Oeste 0 973.5 1.5 66
2019-10-15 03:00:00 11.7 20 Oeste 35 Oeste 0 973.1 1.7 62
2019-10-15 02:00:00 12.5 14 Oeste 26 Oeste 0 972.5 1.8 63
2019-10-15 01:00:00 12.4 8 Sudoeste 21 Oeste 0 972 2.1 71
2019-10-15 00:00:00 12.8 14 Oeste 24 Oeste 0 971.4 2.5 68
2019-10-14 23:00:00 12.8 4 Sudoeste 8 Sudoeste 0 970.7 1.2 78
2019-10-14 22:00:00 13.3 8 Oeste 21 Sudoeste 0 969.9 2.3 73
2019-10-14 21:00:00 13.1 7 Sudoeste 32 Oeste 0.1 968.9 3.1 72
2019-10-14 20:00:00 13.9 17 Oeste 37 Oeste 0.3 969.5 3.7 71
2019-10-14 19:00:00 16.6 20 Oeste 48 Oeste 0 967.6 1.6 56
2019-10-14 18:00:00 22.4 7 Oeste 28 Oeste 0 965.8 -0.2 33
2019-10-14 17:00:00 23 16 Sudoeste 28 Sudoeste 0 965.8 -0.7 29
2019-10-14 16:00:00 22.2 15 Sudoeste 28 Oeste 0 966 0.3 38
2019-10-14 15:00:00 22.6 21 Sudoeste 37 Sudoeste 0 966 -0.3 41
2019-10-14 14:00:00 20.1 19 Oeste 39 Sur 0 966.5 -0.3 58
2019-10-14 13:00:00 24.6 29 Sur 42 Sur 0 965.7 -1.2 31
2019-10-14 12:00:00 21 24 Este 45 Este 0 966.3 -0.2 70
2019-10-14 11:00:00 19 40 Este 52 Este 0 966.8 0.1 77
2019-10-14 10:00:00 18.1 36 Este 48 Este 0 966.9 -0.1 82
2019-10-14 09:00:00 17.8 34 Este 50 Este 0 966.5 -0.8 83
2019-10-14 08:00:00 18 33 Este 48 Este 0 966.7 -0.8 82
2019-10-14 07:00:00 18 28 Este 50 Este 0 967 -1.2 80
2019-10-14 06:00:00 17.7 28 Este 42 Sudeste 0 967.3 -1.5 82
2019-10-14 05:00:00 17.6 26 Nordeste 41 Nordeste 0 967.5 -2 84
2019-10-14 04:00:00 17.7 18 Este 33 Este 0 968.2 -1.7 84
2019-10-14 03:00:00 17.8 25 Este 37 Este 0 968.8 -1.2 84
2019-10-14 02:00:00 18.3 20 Este 32 Este 0 969.5 -0.8 83
2019-10-14 01:00:00 16.3 8 Este 13 Este 0 969.9 -0.1 73
2019-10-14 00:00:00 20.6 11 Sudeste 21 Sudeste 0 970 -0.3 56